sensor_id;sensor_type;location;lat;lon;timestamp;P1;durP1;ratioP1;P2;durP2;ratioP2
45836;SDS011;31548;51.420;-0.040;2024-02-14T00:00:07;25.25;;;2.92;;
45836;SDS011;31548;51.420;-0.040;2024-02-14T00:02:43;28.88;;;3.63;;
45836;SDS011;31548;51.420;-0.040;2024-02-14T00:05:11;32.88;;;3.88;;
45836;SDS011;31548;51.420;-0.040;2024-02-14T00:07:38;24.50;;;3.45;;
45836;SDS011;31548;51.420;-0.040;2024-02-14T00:10:08;44.30;;;3.85;;
45836;SDS011;31548;51.420;-0.040;2024-02-14T00:12:41;29.70;;;4.32;;
45836;SDS011;31548;51.420;-0.040;2024-02-14T00:15:09;33.53;;;4.35;;
45836;SDS011;31548;51.420;-0.040;2024-02-14T00:17:36;34.38;;;4.30;;
45836;SDS011;31548;51.420;-0.040;2024-02-14T00:20:04;37.25;;;4.53;;
45836;SDS011;31548;51.420;-0.040;2024-02-14T00:22:44;27.58;;;2.75;;
45836;SDS011;31548;51.420;-0.040;2024-02-14T00:25:11;31.52;;;3.85;;
45836;SDS011;31548;51.420;-0.040;2024-02-14T00:27:45;23.58;;;2.88;;
45836;SDS011;31548;51.420;-0.040;2024-02-14T00:30:13;21.52;;;2.15;;
45836;SDS011;31548;51.420;-0.040;2024-02-14T00:33:00;19.00;;;2.90;;
45836;SDS011;31548;51.420;-0.040;2024-02-14T00:35:28;22.65;;;2.85;;
45836;SDS011;31548;51.420;-0.040;2024-02-14T00:37:56;30.27;;;3.17;;
45836;SDS011;31548;51.420;-0.040;2024-02-14T00:40:23;25.05;;;3.25;;
45836;SDS011;31548;51.420;-0.040;2024-02-14T00:42:50;27.15;;;2.78;;
45836;SDS011;31548;51.420;-0.040;2024-02-14T00:45:18;24.95;;;3.22;;
45836;SDS011;31548;51.420;-0.040;2024-02-14T00:47:45;24.67;;;2.97;;
45836;SDS011;31548;51.420;-0.040;2024-02-14T00:50:13;18.83;;;2.47;;
45836;SDS011;31548;51.420;-0.040;2024-02-14T00:52:41;23.02;;;3.28;;
45836;SDS011;31548;51.420;-0.040;2024-02-14T00:55:08;19.58;;;2.85;;
45836;SDS011;31548;51.420;-0.040;2024-02-14T00:57:36;15.60;;;2.20;;
45836;SDS011;31548;51.420;-0.040;2024-02-14T01:00:04;18.88;;;1.67;;
45836;SDS011;31548;51.420;-0.040;2024-02-14T01:02:35;12.25;;;2.03;;
45836;SDS011;31548;51.420;-0.040;2024-02-14T01:05:02;13.77;;;1.65;;
45836;SDS011;31548;51.420;-0.040;2024-02-14T01:07:32;12.65;;;1.48;;
45836;SDS011;31548;51.420;-0.040;2024-02-14T01:09:59;16.13;;;1.70;;
45836;SDS011;31548;51.420;-0.040;2024-02-14T01:12:29;12.15;;;1.58;;
45836;SDS011;31548;51.420;-0.040;2024-02-14T01:14:57;18.60;;;1.73;;
45836;SDS011;31548;51.420;-0.040;2024-02-14T01:17:24;9.52;;;1.52;;
45836;SDS011;31548;51.420;-0.040;2024-02-14T01:19:52;14.82;;;1.27;;
45836;SDS011;31548;51.420;-0.040;2024-02-14T01:22:19;17.70;;;1.58;;
45836;SDS011;31548;51.420;-0.040;2024-02-14T01:25:01;16.15;;;1.58;;
45836;SDS011;31548;51.420;-0.040;2024-02-14T01:27:30;15.40;;;1.80;;
45836;SDS011;31548;51.420;-0.040;2024-02-14T01:29:58;8.48;;;1.55;;
45836;SDS011;31548;51.420;-0.040;2024-02-14T01:32:25;12.27;;;1.55;;
45836;SDS011;31548;51.420;-0.040;2024-02-14T01:34:56;13.05;;;1.23;;
45836;SDS011;31548;51.420;-0.040;2024-02-14T01:37:24;14.27;;;1.38;;
45836;SDS011;31548;51.420;-0.040;2024-02-14T01:39:51;13.85;;;1.27;;
45836;SDS011;31548;51.420;-0.040;2024-02-14T01:42:19;9.25;;;1.10;;
45836;SDS011;31548;51.420;-0.040;2024-02-14T01:44:47;17.70;;;2.85;;
45836;SDS011;31548;51.420;-0.040;2024-02-14T01:47:15;16.38;;;1.48;;
45836;SDS011;31548;51.420;-0.040;2024-02-14T01:49:42;15.02;;;1.35;;
45836;SDS011;31548;51.420;-0.040;2024-02-14T01:52:12;8.02;;;1.02;;
45836;SDS011;31548;51.420;-0.040;2024-02-14T01:54:40;14.15;;;1.77;;
45836;SDS011;31548;51.420;-0.040;2024-02-14T01:57:08;13.80;;;1.35;;
45836;SDS011;31548;51.420;-0.040;2024-02-14T01:59:38;17.98;;;2.00;;
45836;SDS011;31548;51.420;-0.040;2024-02-14T02:02:06;13.25;;;1.52;;
45836;SDS011;31548;51.420;-0.040;2024-02-14T02:04:35;12.82;;;1.35;;
45836;SDS011;31548;51.420;-0.040;2024-02-14T02:07:03;9.75;;;1.73;;
45836;SDS011;31548;51.420;-0.040;2024-02-14T02:09:31;14.60;;;2.17;;
45836;SDS011;31548;51.420;-0.040;2024-02-14T02:11:59;20.85;;;2.50;;
45836;SDS011;31548;51.420;-0.040;2024-02-14T02:14:47;16.95;;;1.55;;
45836;SDS011;31548;51.420;-0.040;2024-02-14T02:17:35;16.55;;;1.55;;
45836;SDS011;31548;51.420;-0.040;2024-02-14T02:20:22;15.68;;;1.13;;
45836;SDS011;31548;51.420;-0.040;2024-02-14T02:22:50;12.40;;;1.38;;
45836;SDS011;31548;51.420;-0.040;2024-02-14T02:25:37;13.50;;;1.52;;
45836;SDS011;31548;51.420;-0.040;2024-02-14T02:28:17;11.18;;;1.05;;
45836;SDS011;31548;51.420;-0.040;2024-02-14T02:30:47;11.70;;;1.42;;
45836;SDS011;31548;51.420;-0.040;2024-02-14T02:33:15;11.05;;;1.73;;
45836;SDS011;31548;51.420;-0.040;2024-02-14T02:35:42;8.93;;;0.90;;
45836;SDS011;31548;51.420;-0.040;2024-02-14T02:38:32;4.68;;;1.33;;
45836;SDS011;31548;51.420;-0.040;2024-02-14T02:41:19;4.75;;;0.82;;
45836;SDS011;31548;51.420;-0.040;2024-02-14T02:44:10;3.70;;;0.60;;
45836;SDS011;31548;51.420;-0.040;2024-02-14T02:47:03;4.45;;;0.52;;
45836;SDS011;31548;51.420;-0.040;2024-02-14T02:49:50;4.13;;;0.70;;
45836;SDS011;31548;51.420;-0.040;2024-02-14T02:52:27;5.95;;;0.80;;
45836;SDS011;31548;51.420;-0.040;2024-02-14T02:55:14;4.47;;;0.55;;
45836;SDS011;31548;51.420;-0.040;2024-02-14T02:57:46;4.75;;;1.13;;
45836;SDS011;31548;51.420;-0.040;2024-02-14T03:00:14;4.20;;;0.80;;
45836;SDS011;31548;51.420;-0.040;2024-02-14T03:02:47;5.88;;;0.93;;
45836;SDS011;31548;51.420;-0.040;2024-02-14T03:05:28;4.13;;;0.73;;
45836;SDS011;31548;51.420;-0.040;2024-02-14T03:08:17;4.03;;;0.57;;
45836;SDS011;31548;51.420;-0.040;2024-02-14T03:11:04;2.58;;;0.50;;
45836;SDS011;31548;51.420;-0.040;2024-02-14T03:13:52;2.88;;;0.52;;
45836;SDS011;31548;51.420;-0.040;2024-02-14T03:16:40;3.33;;;0.43;;
45836;SDS011;31548;51.420;-0.040;2024-02-14T03:19:07;3.25;;;0.50;;
45836;SDS011;31548;51.420;-0.040;2024-02-14T03:21:35;0.90;;;0.40;;
45836;SDS011;31548;51.420;-0.040;2024-02-14T03:24:02;1.75;;;0.50;;
45836;SDS011;31548;51.420;-0.040;2024-02-14T03:26:36;2.17;;;0.30;;
45836;SDS011;31548;51.420;-0.040;2024-02-14T03:29:04;5.15;;;0.32;;
45836;SDS011;31548;51.420;-0.040;2024-02-14T03:31:33;1.23;;;0.20;;
45836;SDS011;31548;51.420;-0.040;2024-02-14T03:34:01;1.88;;;0.30;;
45836;SDS011;31548;51.420;-0.040;2024-02-14T03:36:29;1.42;;;0.30;;
45836;SDS011;31548;51.420;-0.040;2024-02-14T03:38:58;3.72;;;0.50;;
45836;SDS011;31548;51.420;-0.040;2024-02-14T03:41:27;3.50;;;0.77;;
45836;SDS011;31548;51.420;-0.040;2024-02-14T03:43:55;2.13;;;0.30;;
45836;SDS011;31548;51.420;-0.040;2024-02-14T03:46:25;2.22;;;0.30;;
45836;SDS011;31548;51.420;-0.040;2024-02-14T03:48:53;2.10;;;0.30;;
45836;SDS011;31548;51.420;-0.040;2024-02-14T03:51:24;1.25;;;0.30;;
45836;SDS011;31548;51.420;-0.040;2024-02-14T03:53:51;5.10;;;0.65;;
45836;SDS011;31548;51.420;-0.040;2024-02-14T03:56:19;1.05;;;0.50;;
45836;SDS011;31548;51.420;-0.040;2024-02-14T03:58:46;2.05;;;0.40;;
45836;SDS011;31548;51.420;-0.040;2024-02-14T04:01:14;4.00;;;0.30;;
45836;SDS011;31548;51.420;-0.040;2024-02-14T04:03:42;5.75;;;0.40;;
45836;SDS011;31548;51.420;-0.040;2024-02-14T04:06:09;3.38;;;0.30;;
45836;SDS011;31548;51.420;-0.040;2024-02-14T04:08:37;6.05;;;0.50;;
45836;SDS011;31548;51.420;-0.040;2024-02-14T04:11:05;1.55;;;0.63;;
45836;SDS011;31548;51.420;-0.040;2024-02-14T04:13:32;3.28;;;0.45;;
45836;SDS011;31548;51.420;-0.040;2024-02-14T04:15:59;2.58;;;0.40;;
45836;SDS011;31548;51.420;-0.040;2024-02-14T04:18:34;3.08;;;0.50;;
45836;SDS011;31548;51.420;-0.040;2024-02-14T04:21:02;3.00;;;0.32;;
45836;SDS011;31548;51.420;-0.040;2024-02-14T04:23:31;2.78;;;0.38;;
45836;SDS011;31548;51.420;-0.040;2024-02-14T04:25:59;5.90;;;0.55;;
45836;SDS011;31548;51.420;-0.040;2024-02-14T04:28:27;6.20;;;0.80;;
45836;SDS011;31548;51.420;-0.040;2024-02-14T04:30:54;3.13;;;0.50;;
45836;SDS011;31548;51.420;-0.040;2024-02-14T04:33:26;2.33;;;0.60;;
45836;SDS011;31548;51.420;-0.040;2024-02-14T04:35:53;1.67;;;0.50;;
45836;SDS011;31548;51.420;-0.040;2024-02-14T04:38:21;1.90;;;0.50;;
45836;SDS011;31548;51.420;-0.040;2024-02-14T04:40:49;2.85;;;0.55;;
45836;SDS011;31548;51.420;-0.040;2024-02-14T04:43:16;3.15;;;0.40;;
45836;SDS011;31548;51.420;-0.040;2024-02-14T04:45:43;4.00;;;0.60;;
45836;SDS011;31548;51.420;-0.040;2024-02-14T04:48:11;4.18;;;0.50;;
45836;SDS011;31548;51.420;-0.040;2024-02-14T04:50:39;4.25;;;0.40;;
45836;SDS011;31548;51.420;-0.040;2024-02-14T04:53:06;3.78;;;0.40;;
45836;SDS011;31548;51.420;-0.040;2024-02-14T04:55:34;3.70;;;0.40;;
45836;SDS011;31548;51.420;-0.040;2024-02-14T04:58:01;2.10;;;0.50;;
45836;SDS011;31548;51.420;-0.040;2024-02-14T05:00:29;1.75;;;0.30;;
45836;SDS011;31548;51.420;-0.040;2024-02-14T05:02:56;1.33;;;0.40;;
45836;SDS011;31548;51.420;-0.040;2024-02-14T05:05:24;1.42;;;0.40;;
45836;SDS011;31548;51.420;-0.040;2024-02-14T05:07:56;4.43;;;0.57;;
45836;SDS011;31548;51.420;-0.040;2024-02-14T05:10:25;3.85;;;0.40;;
45836;SDS011;31548;51.420;-0.040;2024-02-14T05:12:52;5.05;;;0.50;;
45836;SDS011;31548;51.420;-0.040;2024-02-14T05:15:19;4.10;;;0.50;;
45836;SDS011;31548;51.420;-0.040;2024-02-14T05:17:47;1.85;;;0.35;;
45836;SDS011;31548;51.420;-0.040;2024-02-14T05:20:17;1.02;;;0.35;;
45836;SDS011;31548;51.420;-0.040;2024-02-14T05:22:44;1.90;;;0.35;;
45836;SDS011;31548;51.420;-0.040;2024-02-14T05:25:12;1.27;;;0.30;;
45836;SDS011;31548;51.420;-0.040;2024-02-14T05:27:51;3.35;;;0.20;;
45836;SDS011;31548;51.420;-0.040;2024-02-14T05:30:18;4.15;;;0.30;;
45836;SDS011;31548;51.420;-0.040;2024-02-14T05:32:50;0.85;;;0.10;;
45836;SDS011;31548;51.420;-0.040;2024-02-14T05:35:22;1.02;;;0.20;;
45836;SDS011;31548;51.420;-0.040;2024-02-14T05:37:49;1.40;;;0.20;;
45836;SDS011;31548;51.420;-0.040;2024-02-14T05:40:17;0.98;;;0.17;;
45836;SDS011;31548;51.420;-0.040;2024-02-14T05:42:45;2.88;;;0.20;;
45836;SDS011;31548;51.420;-0.040;2024-02-14T05:45:13;0.65;;;0.22;;
45836;SDS011;31548;51.420;-0.040;2024-02-14T05:47:40;2.33;;;0.20;;
45836;SDS011;31548;51.420;-0.040;2024-02-14T05:50:09;2.92;;;0.82;;
45836;SDS011;31548;51.420;-0.040;2024-02-14T05:52:38;1.50;;;0.20;;
45836;SDS011;31548;51.420;-0.040;2024-02-14T05:55:05;1.27;;;0.20;;
45836;SDS011;31548;51.420;-0.040;2024-02-14T05:57:45;1.70;;;0.10;;
45836;SDS011;31548;51.420;-0.040;2024-02-14T06:00:13;1.80;;;0.30;;
45836;SDS011;31548;51.420;-0.040;2024-02-14T06:02:40;1.23;;;0.28;;
45836;SDS011;31548;51.420;-0.040;2024-02-14T06:05:08;1.10;;;0.20;;
45836;SDS011;31548;51.420;-0.040;2024-02-14T06:07:38;0.80;;;0.30;;
45836;SDS011;31548;51.420;-0.040;2024-02-14T06:10:07;2.78;;;0.30;;
45836;SDS011;31548;51.420;-0.040;2024-02-14T06:12:35;1.77;;;0.30;;
45836;SDS011;31548;51.420;-0.040;2024-02-14T06:15:03;1.48;;;0.30;;
45836;SDS011;31548;51.420;-0.040;2024-02-14T06:17:33;0.75;;;0.40;;
45836;SDS011;31548;51.420;-0.040;2024-02-14T06:20:01;2.22;;;0.30;;
45836;SDS011;31548;51.420;-0.040;2024-02-14T06:22:35;2.75;;;0.45;;
45836;SDS011;31548;51.420;-0.040;2024-02-14T06:25:13;2.17;;;0.32;;
45836;SDS011;31548;51.420;-0.040;2024-02-14T06:27:51;1.58;;;0.38;;
45836;SDS011;31548;51.420;-0.040;2024-02-14T06:30:21;1.40;;;0.30;;
45836;SDS011;31548;51.420;-0.040;2024-02-14T06:32:48;3.08;;;0.30;;
45836;SDS011;31548;51.420;-0.040;2024-02-14T06:35:16;1.58;;;0.40;;
45836;SDS011;31548;51.420;-0.040;2024-02-14T06:37:46;0.75;;;0.30;;
45836;SDS011;31548;51.420;-0.040;2024-02-14T06:40:25;3.25;;;0.35;;
45836;SDS011;31548;51.420;-0.040;2024-02-14T06:42:54;1.55;;;0.30;;
45836;SDS011;31548;51.420;-0.040;2024-02-14T06:45:22;1.00;;;0.20;;
45836;SDS011;31548;51.420;-0.040;2024-02-14T06:48:03;0.60;;;0.30;;
45836;SDS011;31548;51.420;-0.040;2024-02-14T06:50:31;2.75;;;0.30;;
45836;SDS011;31548;51.420;-0.040;2024-02-14T06:52:58;0.30;;;0.20;;
45836;SDS011;31548;51.420;-0.040;2024-02-14T06:55:27;0.30;;;0.25;;
45836;SDS011;31548;51.420;-0.040;2024-02-14T06:57:55;0.60;;;0.30;;
45836;SDS011;31548;51.420;-0.040;2024-02-14T07:00:23;2.58;;;0.25;;
45836;SDS011;31548;51.420;-0.040;2024-02-14T07:02:50;1.10;;;0.35;;
45836;SDS011;31548;51.420;-0.040;2024-02-14T07:05:18;2.15;;;0.25;;
45836;SDS011;31548;51.420;-0.040;2024-02-14T07:07:45;0.65;;;0.10;;
45836;SDS011;31548;51.420;-0.040;2024-02-14T07:10:13;1.05;;;0.20;;
45836;SDS011;31548;51.420;-0.040;2024-02-14T07:12:40;2.85;;;0.13;;
45836;SDS011;31548;51.420;-0.040;2024-02-14T07:15:08;1.45;;;0.52;;
45836;SDS011;31548;51.420;-0.040;2024-02-14T07:17:36;0.68;;;0.20;;
45836;SDS011;31548;51.420;-0.040;2024-02-14T07:20:05;0.40;;;0.10;;
45836;SDS011;31548;51.420;-0.040;2024-02-14T07:22:36;1.13;;;0.20;;
45836;SDS011;31548;51.420;-0.040;2024-02-14T07:25:03;1.85;;;0.10;;
45836;SDS011;31548;51.420;-0.040;2024-02-14T07:27:32;0.60;;;0.30;;
45836;SDS011;31548;51.420;-0.040;2024-02-14T07:29:59;0.15;;;0.10;;
45836;SDS011;31548;51.420;-0.040;2024-02-14T07:32:27;0.10;;;0.10;;
45836;SDS011;31548;51.420;-0.040;2024-02-14T07:34:54;0.28;;;0.10;;
45836;SDS011;31548;51.420;-0.040;2024-02-14T07:37:22;0.40;;;0.10;;
45836;SDS011;31548;51.420;-0.040;2024-02-14T07:39:49;0.25;;;0.10;;
45836;SDS011;31548;51.420;-0.040;2024-02-14T07:42:18;1.08;;;0.10;;
45836;SDS011;31548;51.420;-0.040;2024-02-14T07:44:45;1.95;;;0.10;;
45836;SDS011;31548;51.420;-0.040;2024-02-14T07:47:12;0.20;;;0.17;;
45836;SDS011;31548;51.420;-0.040;2024-02-14T07:49:40;0.77;;;0.10;;
45836;SDS011;31548;51.420;-0.040;2024-02-14T07:52:08;0.40;;;0.17;;
45836;SDS011;31548;51.420;-0.040;2024-02-14T07:54:35;0.10;;;0.10;;
45836;SDS011;31548;51.420;-0.040;2024-02-14T07:57:03;0.80;;;0.30;;
45836;SDS011;31548;51.420;-0.040;2024-02-14T07:59:30;0.45;;;0.20;;
45836;SDS011;31548;51.420;-0.040;2024-02-14T08:01:58;0.50;;;0.20;;
45836;SDS011;31548;51.420;-0.040;2024-02-14T08:04:25;0.30;;;0.10;;
45836;SDS011;31548;51.420;-0.040;2024-02-14T08:06:53;0.20;;;0.13;;
45836;SDS011;31548;51.420;-0.040;2024-02-14T08:09:20;1.25;;;0.10;;
45836;SDS011;31548;51.420;-0.040;2024-02-14T08:11:48;0.88;;;0.10;;
45836;SDS011;31548;51.420;-0.040;2024-02-14T08:14:16;0.45;;;0.17;;
45836;SDS011;31548;51.420;-0.040;2024-02-14T08:16:44;0.15;;;0.15;;
45836;SDS011;31548;51.420;-0.040;2024-02-14T08:19:11;1.13;;;0.10;;
45836;SDS011;31548;51.420;-0.040;2024-02-14T08:21:39;0.80;;;0.20;;
45836;SDS011;31548;51.420;-0.040;2024-02-14T08:24:08;0.05;;;0.05;;
45836;SDS011;31548;51.420;-0.040;2024-02-14T08:26:35;0.52;;;0.13;;
45836;SDS011;31548;51.420;-0.040;2024-02-14T08:29:03;1.60;;;0.20;;
45836;SDS011;31548;51.420;-0.040;2024-02-14T08:31:31;0.73;;;0.10;;
45836;SDS011;31548;51.420;-0.040;2024-02-14T08:33:59;0.20;;;0.17;;
45836;SDS011;31548;51.420;-0.040;2024-02-14T08:36:27;0.20;;;0.20;;
45836;SDS011;31548;51.420;-0.040;2024-02-14T08:38:54;1.67;;;0.20;;
45836;SDS011;31548;51.420;-0.040;2024-02-14T08:41:22;0.30;;;0.17;;
45836;SDS011;31548;51.420;-0.040;2024-02-14T08:43:50;0.70;;;0.20;;
45836;SDS011;31548;51.420;-0.040;2024-02-14T08:46:17;2.13;;;0.10;;
45836;SDS011;31548;51.420;-0.040;2024-02-14T08:48:45;0.28;;;0.20;;
45836;SDS011;31548;51.420;-0.040;2024-02-14T08:51:15;4.47;;;0.25;;
45836;SDS011;31548;51.420;-0.040;2024-02-14T08:53:44;1.77;;;0.20;;
45836;SDS011;31548;51.420;-0.040;2024-02-14T08:56:13;1.13;;;0.20;;
45836;SDS011;31548;51.420;-0.040;2024-02-14T08:58:41;0.43;;;0.20;;
45836;SDS011;31548;51.420;-0.040;2024-02-14T09:01:09;1.20;;;0.10;;
45836;SDS011;31548;51.420;-0.040;2024-02-14T09:03:44;0.65;;;0.20;;
45836;SDS011;31548;51.420;-0.040;2024-02-14T09:06:17;1.00;;;0.15;;
45836;SDS011;31548;51.420;-0.040;2024-02-14T09:08:46;0.57;;;0.10;;
45836;SDS011;31548;51.420;-0.040;2024-02-14T09:11:14;1.10;;;0.10;;
45836;SDS011;31548;51.420;-0.040;2024-02-14T09:13:41;0.80;;;0.10;;
45836;SDS011;31548;51.420;-0.040;2024-02-14T09:16:09;0.55;;;0.08;;
45836;SDS011;31548;51.420;-0.040;2024-02-14T09:18:38;1.08;;;0.10;;
45836;SDS011;31548;51.420;-0.040;2024-02-14T09:21:09;2.20;;;0.40;;
45836;SDS011;31548;51.420;-0.040;2024-02-14T09:23:37;0.32;;;0.10;;
45836;SDS011;31548;51.420;-0.040;2024-02-14T09:26:07;0.40;;;0.10;;
45836;SDS011;31548;51.420;-0.040;2024-02-14T09:28:34;0.00;;;0.00;;
45836;SDS011;31548;51.420;-0.040;2024-02-14T09:31:03;0.80;;;0.10;;
45836;SDS011;31548;51.420;-0.040;2024-02-14T09:33:31;0.50;;;0.13;;
45836;SDS011;31548;51.420;-0.040;2024-02-14T09:35:58;0.38;;;0.13;;
45836;SDS011;31548;51.420;-0.040;2024-02-14T09:38:26;0.30;;;0.00;;
45836;SDS011;31548;51.420;-0.040;2024-02-14T09:40:54;0.70;;;0.20;;
45836;SDS011;31548;51.420;-0.040;2024-02-14T09:43:36;0.20;;;0.10;;
45836;SDS011;31548;51.420;-0.040;2024-02-14T09:46:07;0.15;;;0.03;;
45836;SDS011;31548;51.420;-0.040;2024-02-14T09:48:35;0.88;;;0.10;;
45836;SDS011;31548;51.420;-0.040;2024-02-14T09:51:05;1.25;;;0.00;;
45836;SDS011;31548;51.420;-0.040;2024-02-14T09:53:35;0.85;;;0.10;;
45836;SDS011;31548;51.420;-0.040;2024-02-14T09:56:02;0.10;;;0.10;;
45836;SDS011;31548;51.420;-0.040;2024-02-14T09:58:40;0.17;;;0.00;;
45836;SDS011;31548;51.420;-0.040;2024-02-14T10:01:08;1.33;;;0.10;;
45836;SDS011;31548;51.420;-0.040;2024-02-14T10:03:35;0.00;;;0.00;;
45836;SDS011;31548;51.420;-0.040;2024-02-14T10:06:03;1.08;;;0.00;;
45836;SDS011;31548;51.420;-0.040;2024-02-14T10:08:31;0.35;;;0.03;;
45836;SDS011;31548;51.420;-0.040;2024-02-14T10:10:59;0.90;;;0.00;;
45836;SDS011;31548;51.420;-0.040;2024-02-14T10:13:27;0.32;;;0.10;;
45836;SDS011;31548;51.420;-0.040;2024-02-14T10:15:56;0.82;;;0.10;;
45836;SDS011;31548;51.420;-0.040;2024-02-14T10:18:23;2.17;;;0.10;;
45836;SDS011;31548;51.420;-0.040;2024-02-14T10:20:52;0.13;;;0.10;;
45836;SDS011;31548;51.420;-0.040;2024-02-14T10:23:24;0.17;;;0.10;;
45836;SDS011;31548;51.420;-0.040;2024-02-14T10:25:53;2.47;;;0.20;;
45836;SDS011;31548;51.420;-0.040;2024-02-14T10:28:23;0.90;;;0.10;;
45836;SDS011;31548;51.420;-0.040;2024-02-14T10:31:02;1.65;;;0.20;;
45836;SDS011;31548;51.420;-0.040;2024-02-14T10:33:33;0.08;;;0.00;;
45836;SDS011;31548;51.420;-0.040;2024-02-14T10:36:01;0.65;;;0.05;;
45836;SDS011;31548;51.420;-0.040;2024-02-14T10:38:30;0.65;;;0.08;;
45836;SDS011;31548;51.420;-0.040;2024-02-14T10:41:02;0.10;;;0.00;;
45836;SDS011;31548;51.420;-0.040;2024-02-14T10:43:31;0.40;;;0.10;;
45836;SDS011;31548;51.420;-0.040;2024-02-14T10:46:00;0.10;;;0.00;;
45836;SDS011;31548;51.420;-0.040;2024-02-14T10:48:34;3.05;;;0.10;;
45836;SDS011;31548;51.420;-0.040;2024-02-14T10:51:06;0.43;;;0.10;;
45836;SDS011;31548;51.420;-0.040;2024-02-14T10:53:36;0.15;;;0.10;;
45836;SDS011;31548;51.420;-0.040;2024-02-14T10:56:17;0.10;;;0.10;;
45836;SDS011;31548;51.420;-0.040;2024-02-14T10:58:46;0.17;;;0.00;;
45836;SDS011;31548;51.420;-0.040;2024-02-14T11:01:16;0.85;;;0.10;;
45836;SDS011;31548;51.420;-0.040;2024-02-14T11:03:44;0.20;;;0.10;;
45836;SDS011;31548;51.420;-0.040;2024-02-14T11:06:16;1.17;;;0.10;;
45836;SDS011;31548;51.420;-0.040;2024-02-14T11:08:57;0.20;;;0.10;;
45836;SDS011;31548;51.420;-0.040;2024-02-14T11:11:28;1.20;;;0.10;;
45836;SDS011;31548;51.420;-0.040;2024-02-14T11:13:57;0.47;;;0.10;;
45836;SDS011;31548;51.420;-0.040;2024-02-14T11:16:25;0.25;;;0.13;;
45836;SDS011;31548;51.420;-0.040;2024-02-14T11:19:11;1.67;;;0.20;;
45836;SDS011;31548;51.420;-0.040;2024-02-14T11:21:47;1.90;;;0.20;;
45836;SDS011;31548;51.420;-0.040;2024-02-14T11:24:18;1.25;;;0.28;;
45836;SDS011;31548;51.420;-0.040;2024-02-14T11:26:49;1.77;;;0.50;;
45836;SDS011;31548;51.420;-0.040;2024-02-14T11:29:19;0.30;;;0.30;;
45836;SDS011;31548;51.420;-0.040;2024-02-14T11:32:01;4.57;;;0.20;;
45836;SDS011;31548;51.420;-0.040;2024-02-14T11:34:29;1.02;;;0.20;;
45836;SDS011;31548;51.420;-0.040;2024-02-14T11:37:04;0.50;;;0.32;;
45836;SDS011;31548;51.420;-0.040;2024-02-14T11:39:34;1.20;;;0.82;;
45836;SDS011;31548;51.420;-0.040;2024-02-14T11:42:02;1.85;;;0.38;;
45836;SDS011;31548;51.420;-0.040;2024-02-14T11:44:29;3.15;;;0.40;;
45836;SDS011;31548;51.420;-0.040;2024-02-14T11:46:59;2.15;;;0.50;;
45836;SDS011;31548;51.420;-0.040;2024-02-14T11:49:27;0.98;;;0.40;;
45836;SDS011;31548;51.420;-0.040;2024-02-14T11:51:55;2.65;;;0.50;;
45836;SDS011;31548;51.420;-0.040;2024-02-14T11:54:22;5.78;;;0.50;;
45836;SDS011;31548;51.420;-0.040;2024-02-14T11:56:50;4.10;;;0.40;;
45836;SDS011;31548;51.420;-0.040;2024-02-14T11:59:18;2.25;;;0.40;;
45836;SDS011;31548;51.420;-0.040;2024-02-14T12:01:47;1.27;;;0.40;;
45836;SDS011;31548;51.420;-0.040;2024-02-14T12:04:15;5.25;;;0.40;;
45836;SDS011;31548;51.420;-0.040;2024-02-14T12:06:44;3.13;;;0.30;;
45836;SDS011;31548;51.420;-0.040;2024-02-14T12:09:12;5.60;;;0.65;;
45836;SDS011;31548;51.420;-0.040;2024-02-14T12:14:34;0.90;;;0.30;;
45836;SDS011;31548;51.420;-0.040;2024-02-14T12:17:02;2.40;;;0.50;;
45836;SDS011;31548;51.420;-0.040;2024-02-14T12:19:29;0.98;;;0.30;;
45836;SDS011;31548;51.420;-0.040;2024-02-14T12:21:59;3.10;;;0.50;;
45836;SDS011;31548;51.420;-0.040;2024-02-14T12:24:28;2.88;;;0.30;;
45836;SDS011;31548;51.420;-0.040;2024-02-14T12:26:55;2.28;;;0.55;;
45836;SDS011;31548;51.420;-0.040;2024-02-14T12:29:23;2.13;;;0.40;;
45836;SDS011;31548;51.420;-0.040;2024-02-14T12:31:51;4.80;;;0.40;;
45836;SDS011;31548;51.420;-0.040;2024-02-14T12:34:29;2.88;;;0.40;;
45836;SDS011;31548;51.420;-0.040;2024-02-14T12:36:57;1.05;;;0.30;;
45836;SDS011;31548;51.420;-0.040;2024-02-14T12:39:26;4.35;;;0.30;;
45836;SDS011;31548;51.420;-0.040;2024-02-14T12:41:54;1.88;;;0.60;;
45836;SDS011;31548;51.420;-0.040;2024-02-14T12:44:21;0.85;;;0.35;;
45836;SDS011;31548;51.420;-0.040;2024-02-14T12:46:49;2.15;;;0.55;;
45836;SDS011;31548;51.420;-0.040;2024-02-14T12:49:16;5.00;;;0.47;;
45836;SDS011;31548;51.420;-0.040;2024-02-14T12:51:44;1.98;;;0.43;;
45836;SDS011;31548;51.420;-0.040;2024-02-14T12:54:12;1.17;;;0.47;;
45836;SDS011;31548;51.420;-0.040;2024-02-14T12:56:42;1.63;;;0.43;;
45836;SDS011;31548;51.420;-0.040;2024-02-14T12:59:14;3.35;;;0.30;;
45836;SDS011;31548;51.420;-0.040;2024-02-14T13:01:44;1.02;;;0.40;;
45836;SDS011;31548;51.420;-0.040;2024-02-14T13:04:12;0.60;;;0.20;;
45836;SDS011;31548;51.420;-0.040;2024-02-14T13:06:41;0.85;;;0.30;;
45836;SDS011;31548;51.420;-0.040;2024-02-14T13:09:08;1.98;;;0.43;;
45836;SDS011;31548;51.420;-0.040;2024-02-14T13:11:38;1.00;;;0.30;;
45836;SDS011;31548;51.420;-0.040;2024-02-14T13:14:06;3.72;;;0.30;;
45836;SDS011;31548;51.420;-0.040;2024-02-14T13:16:33;1.20;;;0.20;;
45836;SDS011;31548;51.420;-0.040;2024-02-14T13:19:01;2.38;;;0.40;;
45836;SDS011;31548;51.420;-0.040;2024-02-14T13:21:29;1.70;;;0.20;;
45836;SDS011;31548;51.420;-0.040;2024-02-14T13:23:57;2.00;;;0.30;;
45836;SDS011;31548;51.420;-0.040;2024-02-14T13:26:24;1.02;;;0.20;;
45836;SDS011;31548;51.420;-0.040;2024-02-14T13:28:52;2.13;;;0.30;;
45836;SDS011;31548;51.420;-0.040;2024-02-14T13:31:21;5.88;;;0.50;;
45836;SDS011;31548;51.420;-0.040;2024-02-14T13:33:48;1.05;;;0.30;;
45836;SDS011;31548;51.420;-0.040;2024-02-14T13:36:16;2.28;;;0.20;;
45836;SDS011;31548;51.420;-0.040;2024-02-14T13:38:44;2.60;;;0.30;;
45836;SDS011;31548;51.420;-0.040;2024-02-14T13:41:13;1.77;;;0.68;;
45836;SDS011;31548;51.420;-0.040;2024-02-14T13:43:40;1.85;;;0.30;;
45836;SDS011;31548;51.420;-0.040;2024-02-14T13:46:08;0.40;;;0.30;;
45836;SDS011;31548;51.420;-0.040;2024-02-14T13:48:36;0.85;;;0.20;;
45836;SDS011;31548;51.420;-0.040;2024-02-14T13:51:04;0.77;;;0.20;;
45836;SDS011;31548;51.420;-0.040;2024-02-14T13:53:32;1.63;;;0.35;;
45836;SDS011;31548;51.420;-0.040;2024-02-14T13:56:00;0.95;;;0.20;;
45836;SDS011;31548;51.420;-0.040;2024-02-14T13:58:27;1.00;;;0.20;;
45836;SDS011;31548;51.420;-0.040;2024-02-14T14:00:55;0.73;;;0.10;;
45836;SDS011;31548;51.420;-0.040;2024-02-14T14:03:22;0.82;;;0.20;;
45836;SDS011;31548;51.420;-0.040;2024-02-14T14:05:50;2.67;;;0.28;;
45836;SDS011;31548;51.420;-0.040;2024-02-14T14:08:18;1.10;;;0.20;;
45836;SDS011;31548;51.420;-0.040;2024-02-14T14:10:45;1.73;;;0.20;;
45836;SDS011;31548;51.420;-0.040;2024-02-14T14:13:12;0.90;;;0.20;;
45836;SDS011;31548;51.420;-0.040;2024-02-14T14:15:40;2.83;;;0.20;;
45836;SDS011;31548;51.420;-0.040;2024-02-14T14:18:08;0.45;;;0.20;;
45836;SDS011;31548;51.420;-0.040;2024-02-14T14:20:37;0.88;;;0.20;;
45836;SDS011;31548;51.420;-0.040;2024-02-14T14:23:05;2.67;;;0.20;;
45836;SDS011;31548;51.420;-0.040;2024-02-14T14:25:33;2.28;;;0.30;;
45836;SDS011;31548;51.420;-0.040;2024-02-14T14:28:00;1.20;;;0.20;;
45836;SDS011;31548;51.420;-0.040;2024-02-14T14:30:32;1.95;;;0.20;;
45836;SDS011;31548;51.420;-0.040;2024-02-14T14:33:00;0.85;;;0.25;;
45836;SDS011;31548;51.420;-0.040;2024-02-14T14:35:29;2.95;;;0.22;;
45836;SDS011;31548;51.420;-0.040;2024-02-14T14:38:00;0.60;;;0.20;;
45836;SDS011;31548;51.420;-0.040;2024-02-14T14:40:29;2.90;;;0.30;;
45836;SDS011;31548;51.420;-0.040;2024-02-14T14:42:57;1.67;;;0.30;;
45836;SDS011;31548;51.420;-0.040;2024-02-14T14:45:25;5.30;;;0.30;;
45836;SDS011;31548;51.420;-0.040;2024-02-14T14:47:54;1.83;;;0.30;;
45836;SDS011;31548;51.420;-0.040;2024-02-14T14:50:23;2.58;;;0.25;;